createdAt,value
2017-08-05T00:00:42.533Z,15.84
2017-08-05T00:01:42.559Z,15.83
2017-08-05T00:02:42.217Z,15.93
2017-08-05T00:03:42.526Z,15.93
2017-08-05T00:04:43.549Z,15.74
2017-08-05T00:05:43.001Z,15.81
2017-08-05T00:06:42.190Z,15.71
2017-08-05T00:07:42.192Z,15.78
2017-08-05T00:08:42.885Z,15.75
2017-08-05T00:09:42.176Z,15.55
2017-08-05T00:10:42.492Z,15.62
2017-08-05T00:11:42.166Z,15.65
2017-08-05T00:12:42.502Z,15.65
2017-08-05T00:13:42.952Z,15.55
2017-08-05T00:14:42.475Z,15.62
2017-08-05T00:15:42.498Z,15.68
2017-08-05T00:16:42.186Z,15.62
2017-08-05T00:17:42.855Z,15.68
2017-08-05T00:18:42.658Z,15.65
2017-08-05T00:19:42.135Z,15.65
2017-08-05T00:20:42.145Z,15.68
2017-08-05T00:21:42.448Z,15.62
2017-08-05T00:22:43.288Z,15.62
2017-08-05T00:23:41.905Z,15.63
2017-08-05T00:24:42.449Z,15.6
2017-08-05T00:25:42.264Z,15.53
2017-08-05T00:26:43.164Z,15.62
2017-08-05T00:27:42.355Z,15.58
2017-08-05T00:28:42.125Z,15.6
2017-08-05T00:29:42.436Z,15.55
2017-08-05T00:30:42.431Z,15.58
2017-08-05T00:31:42.702Z,15.49
2017-08-05T00:32:42.408Z,15.52
2017-08-05T00:33:41.979Z,15.49
2017-08-05T00:34:42.406Z,15.47
2017-08-05T00:35:42.448Z,15.45
2017-08-05T00:36:42.389Z,15.49
2017-08-05T00:37:43.427Z,15.44
2017-08-05T00:38:42.062Z,15.52
2017-08-05T00:39:42.067Z,15.51
2017-08-05T00:40:42.072Z,15.53
2017-08-05T00:41:42.367Z,15.51
2017-08-05T00:42:42.056Z,15.56
2017-08-05T00:43:43.102Z,15.58
2017-08-05T00:44:42.920Z,15.59
2017-08-05T00:45:42.373Z,15.51
2017-08-05T00:46:42.365Z,15.53
2017-08-05T00:47:42.028Z,15.53
2017-08-05T00:48:42.344Z,15.6
2017-08-05T00:49:42.439Z,15.53
2017-08-05T00:50:42.352Z,15.47
2017-08-05T00:51:42.708Z,15.44
2017-08-05T00:52:42.000Z,15.53
2017-08-05T00:53:42.021Z,15.52
2017-08-05T00:54:42.469Z,15.49
2017-08-05T00:55:41.990Z,15.47
2017-08-05T00:56:42.897Z,15.44
2017-08-05T00:57:41.982Z,15.44
2017-08-05T00:58:42.302Z,15.47
2017-08-05T00:59:42.319Z,15.45
2017-08-05T01:00:42.289Z,15.52
2017-08-05T01:01:42.307Z,15.44
2017-08-05T01:02:42.285Z,15.47
2017-08-05T01:03:42.357Z,15.4
2017-08-05T01:04:42.278Z,15.44
2017-08-05T01:05:41.891Z,15.41
2017-08-05T01:06:42.269Z,15.41
2017-08-05T01:07:41.940Z,15.35
2017-08-05T01:08:42.274Z,15.33
2017-08-05T01:09:41.930Z,15.31
2017-08-05T01:10:42.787Z,15.27
2017-08-05T01:11:42.321Z,15.4
2017-08-05T01:12:42.240Z,15.35
2017-08-05T01:13:42.234Z,15.3
2017-08-05T01:14:42.250Z,15.19
2017-08-05T01:15:42.068Z,15.23
2017-08-05T01:16:41.899Z,15.22
2017-08-05T01:17:41.591Z,15.19
2017-08-05T01:18:42.232Z,15.22
2017-08-05T01:19:42.631Z,15.08
2017-08-05T01:20:42.627Z,15.16
2017-08-05T01:21:41.895Z,15.08
2017-08-05T01:22:42.197Z,15.1
2017-08-05T01:23:42.212Z,15.08
2017-08-05T01:24:43.142Z,15.13
2017-08-05T01:25:42.755Z,15.08
2017-08-05T01:26:42.189Z,15.07
2017-08-05T01:27:42.216Z,15.01
2017-08-05T01:28:41.868Z,15.04
2017-08-05T01:29:41.847Z,15
2017-08-05T01:30:41.842Z,15.02
2017-08-05T01:31:41.923Z,15.04
2017-08-05T01:32:42.709Z,15.01
2017-08-05T01:33:41.849Z,14.97
2017-08-05T01:34:41.851Z,14.94
2017-08-05T01:35:41.826Z,15.01
2017-08-05T01:36:42.140Z,14.94
2017-08-05T01:37:43.049Z,14.86
2017-08-05T01:38:42.612Z,14.8
2017-08-05T01:39:41.801Z,14.9
2017-08-05T01:40:41.819Z,14.87
2017-08-05T01:41:41.796Z,14.87
2017-08-05T01:42:41.804Z,14.85
2017-08-05T01:43:41.813Z,14.9
2017-08-05T01:44:42.459Z,14.86
2017-08-05T01:45:42.102Z,14.85
2017-08-05T01:46:42.107Z,14.9
2017-08-05T01:47:42.090Z,14.94
2017-08-05T01:48:42.961Z,14.86
2017-08-05T01:49:41.758Z,14.97
2017-08-05T01:50:42.032Z,14.94
2017-08-05T01:51:41.748Z,15.01
2017-08-05T01:52:41.763Z,15.05
2017-08-05T01:53:41.759Z,15.04
2017-08-05T01:54:42.793Z,15.07
2017-08-05T01:55:42.834Z,15.04
2017-08-05T01:56:41.728Z,15.05
2017-08-05T01:57:41.733Z,15.01
2017-08-05T01:58:41.742Z,15.07
2017-08-05T01:59:41.840Z,15.05
2017-08-05T02:00:42.081Z,15.05
2017-08-05T02:01:42.871Z,15.07
2017-08-05T02:02:42.459Z,14.97
2017-08-05T02:03:42.015Z,14.98
2017-08-05T02:04:41.694Z,14.95
2017-08-05T02:05:41.701Z,14.86
2017-08-05T02:06:42.005Z,14.89
2017-08-05T02:07:42.985Z,14.85
2017-08-05T02:08:41.991Z,14.8
2017-08-05T02:09:41.850Z,14.77
2017-08-05T02:10:41.664Z,14.71
2017-08-05T02:11:42.000Z,14.67
2017-08-05T02:12:41.976Z,14.71
2017-08-05T02:13:41.969Z,14.67
2017-08-05T02:14:41.963Z,14.57
2017-08-05T02:15:41.957Z,14.59
2017-08-05T02:16:41.645Z,14.66
2017-08-05T02:17:41.631Z,14.71
2017-08-05T02:18:41.311Z,14.63
2017-08-05T02:19:41.621Z,14.6
2017-08-05T02:20:41.938Z,14.59
2017-08-05T02:21:41.625Z,14.6
2017-08-05T02:22:41.927Z,14.51
2017-08-05T02:23:41.623Z,14.49
2017-08-05T02:24:41.592Z,14.45
2017-08-05T02:25:41.591Z,14.48
2017-08-05T02:26:41.954Z,14.45
2017-08-05T02:27:41.781Z,14.48
2017-08-05T02:28:41.900Z,14.49
2017-08-05T02:29:41.576Z,14.51
2017-08-05T02:30:41.903Z,14.49
2017-08-05T02:31:41.903Z,14.51
2017-08-05T02:32:41.882Z,14.44
2017-08-05T02:33:41.577Z,14.44
2017-08-05T02:34:41.897Z,14.6
2017-08-05T02:35:41.865Z,14.49
2017-08-05T02:36:41.863Z,14.57
2017-08-05T02:37:41.538Z,14.64
2017-08-05T02:38:41.530Z,14.69
2017-08-05T02:39:41.849Z,14.61
2017-08-05T02:40:41.866Z,14.66
2017-08-05T02:41:41.515Z,14.7
2017-08-05T02:42:41.862Z,14.6
2017-08-05T02:43:41.526Z,14.61
2017-08-05T02:44:41.821Z,14.49
2017-08-05T02:45:41.499Z,14.6
2017-08-05T02:46:41.502Z,14.49
2017-08-05T02:47:41.487Z,14.49
2017-08-05T02:48:41.814Z,14.49
2017-08-05T02:49:41.800Z,14.49
2017-08-05T02:50:41.477Z,14.49
2017-08-05T02:51:41.483Z,14.48
2017-08-05T02:52:41.462Z,14.51
2017-08-05T02:53:41.476Z,14.42
2017-08-05T02:54:41.779Z,14.42
2017-08-05T02:55:41.782Z,14.42
2017-08-05T02:56:41.444Z,14.34
2017-08-05T02:57:41.783Z,14.44
2017-08-05T02:58:41.753Z,14.49
2017-08-05T02:59:41.761Z,14.46
2017-08-05T03:00:41.438Z,14.44
2017-08-05T03:01:41.738Z,14.42
2017-08-05T03:02:41.414Z,14.36
2017-08-05T03:03:41.408Z,14.33
2017-08-05T03:04:41.427Z,14.39
2017-08-05T03:05:41.401Z,14.34
2017-08-05T03:06:41.740Z,14.31
2017-08-05T03:07:41.399Z,14.28
2017-08-05T03:08:41.713Z,14.27
2017-08-05T03:09:41.709Z,14.3
2017-08-05T03:10:41.696Z,14.26
2017-08-05T03:11:41.690Z,14.24
2017-08-05T03:12:41.685Z,14.27
2017-08-05T03:13:41.360Z,14.2
2017-08-05T03:14:41.694Z,14.19
2017-08-05T03:15:42.046Z,14.26
2017-08-05T03:16:41.663Z,14.23
2017-08-05T03:17:41.345Z,14.19
2017-08-05T03:18:41.655Z,14.08
2017-08-05T03:19:41.682Z,14.12
2017-08-05T03:20:41.327Z,14.12
2017-08-05T03:21:41.324Z,14.21
2017-08-05T03:22:41.650Z,14.11
2017-08-05T03:23:41.310Z,14.09
2017-08-05T03:24:41.318Z,14.09
2017-08-05T03:25:41.625Z,14.08
2017-08-05T03:26:41.615Z,14.08
2017-08-05T03:27:41.628Z,14.01
2017-08-05T03:28:41.300Z,13.91
2017-08-05T03:29:40.956Z,13.99
2017-08-05T03:30:40.959Z,13.94
2017-08-05T03:31:41.269Z,14.01
2017-08-05T03:32:41.614Z,14.03
2017-08-05T03:33:41.280Z,13.94
2017-08-05T03:34:41.575Z,13.94
2017-08-05T03:35:41.252Z,13.91
2017-08-05T03:36:41.571Z,13.95
2017-08-05T03:37:41.570Z,13.97
2017-08-05T03:38:41.246Z,13.94
2017-08-05T03:39:41.287Z,13.94
2017-08-05T03:40:41.562Z,13.99
2017-08-05T03:41:41.537Z,13.97
2017-08-05T03:42:41.210Z,13.87
2017-08-05T03:43:41.525Z,13.93
2017-08-05T03:44:41.521Z,13.88
2017-08-05T03:45:40.894Z,13.94
2017-08-05T03:46:41.215Z,13.93
2017-08-05T03:47:41.195Z,13.9
2017-08-05T03:48:41.516Z,13.94
2017-08-05T03:49:41.184Z,13.91
2017-08-05T03:50:41.497Z,13.88
2017-08-05T03:51:41.184Z,13.88
2017-08-05T03:52:41.486Z,13.87
2017-08-05T03:53:41.507Z,13.79
2017-08-05T03:54:41.168Z,13.87
2017-08-05T03:55:41.155Z,13.78
2017-08-05T03:56:41.135Z,13.83
2017-08-05T03:57:41.129Z,13.79
2017-08-05T03:58:41.129Z,13.76
2017-08-05T03:59:41.502Z,13.7
2017-08-05T04:00:41.436Z,13.7
2017-08-05T04:01:40.785Z,13.7
2017-08-05T04:02:41.428Z,13.65
2017-08-05T04:03:40.778Z,13.68
2017-08-05T04:04:41.455Z,13.65
2017-08-05T04:05:41.088Z,13.69
2017-08-05T04:06:41.103Z,13.7
2017-08-05T04:07:41.074Z,13.72
2017-08-05T04:08:41.068Z,13.81
2017-08-05T04:09:41.422Z,13.69
2017-08-05T04:10:41.091Z,13.72
2017-08-05T04:11:41.069Z,13.78
2017-08-05T04:12:41.048Z,13.72
2017-08-05T04:13:41.420Z,13.73
2017-08-05T04:14:41.356Z,13.73
2017-08-05T04:15:41.030Z,13.78
2017-08-05T04:16:41.391Z,13.78
2017-08-05T04:17:41.027Z,13.81
2017-08-05T04:18:41.046Z,13.69
2017-08-05T04:19:41.010Z,13.81
2017-08-05T04:20:41.340Z,13.81
2017-08-05T04:21:41.336Z,13.72
2017-08-05T04:22:41.317Z,13.83
2017-08-05T04:23:41.307Z,13.81
2017-08-05T04:24:41.004Z,13.79
2017-08-05T04:25:40.978Z,13.78
2017-08-05T04:26:40.667Z,13.73
2017-08-05T04:27:41.298Z,13.81
2017-08-05T04:28:40.640Z,13.79
2017-08-05T04:29:41.315Z,13.79
2017-08-05T04:30:40.948Z,13.84
2017-08-05T04:31:40.949Z,13.86
2017-08-05T04:32:41.261Z,13.84
2017-08-05T04:33:40.931Z,13.81
2017-08-05T04:34:40.972Z,13.87
2017-08-05T04:35:40.930Z,13.9
2017-08-05T04:36:40.916Z,13.86
2017-08-05T04:37:41.227Z,13.88
2017-08-05T04:38:41.264Z,13.93
2017-08-05T04:39:40.917Z,13.9
2017-08-05T04:40:40.901Z,13.91
2017-08-05T04:41:41.230Z,13.91
2017-08-05T04:42:40.884Z,13.97
2017-08-05T04:43:41.201Z,13.95
2017-08-05T04:44:40.896Z,13.95
2017-08-05T04:45:41.190Z,14.01
2017-08-05T04:46:40.879Z,13.94
2017-08-05T04:47:40.534Z,14.13
2017-08-05T04:48:40.865Z,14.13
2017-08-05T04:49:41.173Z,14.05
2017-08-05T04:50:41.162Z,14.09
2017-08-05T04:51:41.155Z,14.19
2017-08-05T04:52:41.156Z,14.08
2017-08-05T04:53:40.831Z,14.15
2017-08-05T04:54:41.141Z,14.12
2017-08-05T04:55:41.142Z,14.24
2017-08-05T04:56:41.134Z,14.28
2017-08-05T04:57:41.123Z,14.41
2017-08-05T04:58:41.130Z,14.46
2017-08-05T04:59:41.114Z,14.52
2017-08-05T05:00:40.465Z,14.49
2017-08-05T05:01:40.805Z,14.46
2017-08-05T05:02:40.787Z,14.64
2017-08-05T05:03:41.092Z,14.61
2017-08-05T05:04:40.773Z,14.75
2017-08-05T05:05:40.769Z,14.86
2017-08-05T05:06:40.753Z,15
2017-08-05T05:07:41.103Z,14.97
2017-08-05T05:08:40.747Z,15.04
2017-08-05T05:09:40.420Z,15.13
2017-08-05T05:10:40.735Z,15.1
2017-08-05T05:11:40.730Z,15.07
2017-08-05T05:12:40.739Z,15.18
2017-08-05T05:13:40.722Z,15.22
2017-08-05T05:14:41.036Z,15.23
2017-08-05T05:15:40.711Z,15.3
2017-08-05T05:16:41.046Z,15.22
2017-08-05T05:17:40.383Z,15.31
2017-08-05T05:18:40.697Z,15.37
2017-08-05T05:19:40.698Z,15.33
2017-08-05T05:20:40.692Z,15.31
2017-08-05T05:21:41.022Z,15.41
2017-08-05T05:22:40.696Z,15.45
2017-08-05T05:23:40.675Z,15.53
2017-08-05T05:24:40.673Z,15.49
2017-08-05T05:25:40.671Z,15.52
2017-08-05T05:26:41.027Z,15.62
2017-08-05T05:27:40.655Z,15.65
2017-08-05T05:28:40.659Z,15.63
2017-08-05T05:29:40.967Z,15.6
2017-08-05T05:30:40.974Z,15.71
2017-08-05T05:31:40.319Z,15.74
2017-08-05T05:32:40.976Z,15.75
2017-08-05T05:33:40.948Z,15.74
2017-08-05T05:34:40.953Z,15.86
2017-08-05T05:35:40.940Z,15.86
2017-08-05T05:36:40.934Z,15.96
2017-08-05T05:37:40.674Z,16.06
2017-08-05T05:38:40.925Z,16.08
2017-08-05T05:39:40.626Z,16.11
2017-08-05T05:40:40.986Z,16.26
2017-08-05T05:41:40.617Z,16.3
2017-08-05T05:42:40.929Z,16.37
2017-08-05T05:43:40.906Z,16.49
2017-08-05T05:44:40.921Z,16.69
2017-08-05T05:45:40.914Z,16.69
2017-08-05T05:46:40.572Z,16.87
2017-08-05T05:47:40.568Z,16.9
2017-08-05T05:48:40.886Z,16.92
2017-08-05T05:49:40.950Z,16.94
2017-08-05T05:50:40.561Z,16.94
2017-08-05T05:51:40.562Z,16.99
2017-08-05T05:52:40.246Z,17.02
2017-08-05T05:53:40.865Z,16.97
2017-08-05T05:54:40.229Z,17
2017-08-05T05:55:40.861Z,16.97
2017-08-05T05:56:40.536Z,16.95
2017-08-05T05:57:40.214Z,16.94
2017-08-05T05:58:40.661Z,16.97
2017-08-05T05:59:40.532Z,16.95
2017-08-05T06:00:40.525Z,16.84
2017-08-05T06:01:40.551Z,16.88
2017-08-05T06:02:40.842Z,16.85
2017-08-05T06:03:40.848Z,16.85
2017-08-05T06:04:40.532Z,16.85
2017-08-05T06:05:40.506Z,16.87
2017-08-05T06:06:40.499Z,16.82
2017-08-05T06:07:40.842Z,16.84
2017-08-05T06:08:40.498Z,16.81
2017-08-05T06:09:40.865Z,16.84
2017-08-05T06:10:40.497Z,16.88
2017-08-05T06:11:40.825Z,16.94
2017-08-05T06:12:40.816Z,16.91
2017-08-05T06:13:40.473Z,16.88
2017-08-05T06:14:40.474Z,16.94
2017-08-05T06:15:40.469Z,16.97
2017-08-05T06:16:40.464Z,16.94
2017-08-05T06:17:40.139Z,16.99
2017-08-05T06:18:40.459Z,16.99
2017-08-05T06:19:40.452Z,17.02
2017-08-05T06:20:40.801Z,17.07
2017-08-05T06:21:40.771Z,17.03
2017-08-05T06:22:40.765Z,16.99
2017-08-05T06:23:40.451Z,17.03
2017-08-05T06:24:40.759Z,17.05
2017-08-05T06:25:40.756Z,17.09
2017-08-05T06:26:40.754Z,17.07
2017-08-05T06:27:40.759Z,17.18
2017-08-05T06:28:40.752Z,17.13
2017-08-05T06:29:40.743Z,17.27
2017-08-05T06:30:40.744Z,17.25
2017-08-05T06:31:40.736Z,17.31
2017-08-05T06:32:40.734Z,17.35
2017-08-05T06:33:40.760Z,17.3
2017-08-05T06:34:40.776Z,17.43
2017-08-05T06:35:40.405Z,17.47
2017-08-05T06:36:40.087Z,17.55
2017-08-05T06:37:40.736Z,17.54
2017-08-05T06:38:40.393Z,17.62
2017-08-05T06:39:40.785Z,17.69
2017-08-05T06:40:40.404Z,17.84
2017-08-05T06:41:40.709Z,18.03
2017-08-05T06:42:40.400Z,18.14
2017-08-05T06:43:40.703Z,18.24
2017-08-05T06:44:40.065Z,18.57
2017-08-05T06:45:40.718Z,18.78
2017-08-05T06:46:40.694Z,19.17
2017-08-05T06:47:40.693Z,19.52
2017-08-05T06:48:40.706Z,19.82
2017-08-05T06:49:40.363Z,20.12
2017-08-05T06:50:40.705Z,20.67
2017-08-05T06:51:40.913Z,21.28
2017-08-05T06:52:40.360Z,21.89
2017-08-05T06:53:40.381Z,22.22
2017-08-05T06:54:40.685Z,22.64
2017-08-05T06:55:40.691Z,23.24
2017-08-05T06:56:40.377Z,23.71
2017-08-05T06:57:40.355Z,24.19
2017-08-05T06:58:40.048Z,24.64
2017-08-05T06:59:40.695Z,25.14
2017-08-05T07:00:40.377Z,25.81
2017-08-05T07:01:40.682Z,26.31
2017-08-05T07:02:40.694Z,26.72
2017-08-05T07:03:40.353Z,26.9
2017-08-05T07:04:40.684Z,27.3
2017-08-05T07:05:40.371Z,27.64
2017-08-05T07:06:40.360Z,27.98
2017-08-05T07:07:40.398Z,28.03
2017-08-05T07:08:40.404Z,28.28
2017-08-05T07:09:40.375Z,28.28
2017-08-05T07:10:40.383Z,28.42
2017-08-05T07:11:40.369Z,28.51
2017-08-05T07:12:40.386Z,28.8
2017-08-05T07:13:40.699Z,29.01
2017-08-05T07:14:40.381Z,29.38
2017-08-05T07:15:40.062Z,29.63
2017-08-05T07:16:40.412Z,29.67
2017-08-05T07:17:40.713Z,29.75
2017-08-05T07:18:40.717Z,29.81
2017-08-05T07:19:40.735Z,29.91
2017-08-05T07:20:40.410Z,30.04
2017-08-05T07:21:40.090Z,30
2017-08-05T07:22:40.767Z,30.09
2017-08-05T07:23:40.418Z,30.04
2017-08-05T07:24:40.424Z,30.28
2017-08-05T07:25:40.116Z,30.26
2017-08-05T07:26:40.440Z,30.24
2017-08-05T07:27:40.766Z,30.45
2017-08-05T07:28:40.448Z,30.64
2017-08-05T07:29:40.773Z,30.79
2017-08-05T07:30:40.474Z,30.67
2017-08-05T07:31:40.477Z,30.73
2017-08-05T07:32:40.482Z,30.81
2017-08-05T07:33:40.486Z,30.59
2017-08-05T07:34:40.489Z,30.45
2017-08-05T07:35:40.816Z,30.57
2017-08-05T07:36:40.817Z,30.71
2017-08-05T07:37:40.827Z,31
2017-08-05T07:38:40.517Z,30.94
2017-08-05T07:39:40.842Z,31.12
2017-08-05T07:40:40.535Z,31.15
2017-08-05T07:41:40.538Z,31.3
2017-08-05T07:42:41.960Z,31.38
2017-08-05T07:43:40.864Z,31.45
2017-08-05T07:44:40.574Z,31.53
2017-08-05T07:45:40.878Z,31.4
2017-08-05T07:46:40.561Z,31.41
2017-08-05T07:47:40.569Z,31.37
2017-08-05T07:48:40.576Z,31.33
2017-08-05T07:49:40.582Z,31.08
2017-08-05T07:50:40.932Z,31.04
2017-08-05T07:51:40.918Z,31.03
2017-08-05T07:52:40.955Z,30.97
2017-08-05T07:53:40.293Z,31.19
2017-08-05T07:54:40.618Z,31.25
2017-08-05T07:55:40.945Z,31.43
2017-08-05T07:56:40.953Z,31.41
2017-08-05T07:57:40.638Z,31.47
2017-08-05T07:58:40.665Z,31.37
2017-08-05T07:59:40.682Z,31.31
2017-08-05T08:00:40.972Z,31.3
2017-08-05T08:01:40.981Z,31.3
2017-08-05T08:02:40.347Z,30.97
2017-08-05T08:03:40.667Z,30.44
2017-08-05T08:04:40.699Z,29.79
2017-08-05T08:05:40.679Z,28.94
2017-08-05T08:06:40.684Z,28.39
2017-08-05T08:07:40.707Z,28.09
2017-08-05T08:08:41.032Z,27.66
2017-08-05T08:09:41.037Z,27.3
2017-08-05T08:10:41.047Z,26.89
2017-08-05T08:11:40.708Z,26.57
2017-08-05T08:12:40.711Z,26.3
2017-08-05T08:13:40.395Z,25.84
2017-08-05T08:14:41.054Z,25.48
2017-08-05T08:15:40.764Z,25.2
2017-08-05T08:16:41.048Z,25.02
2017-08-05T08:17:40.733Z,24.85
2017-08-05T08:18:40.413Z,24.74
2017-08-05T08:19:40.739Z,24.67
2017-08-05T08:20:41.061Z,24.59
2017-08-05T08:21:40.748Z,24.44
2017-08-05T08:22:41.073Z,24.4
2017-08-05T08:23:41.068Z,24.39
2017-08-05T08:24:41.078Z,24.37
2017-08-05T08:25:40.755Z,24.17
2017-08-05T08:26:41.099Z,24.12
2017-08-05T08:27:41.093Z,23.99
2017-08-05T08:28:40.808Z,24.03
2017-08-05T08:29:41.094Z,24.04
2017-08-05T08:30:41.112Z,24.04
2017-08-05T08:31:40.770Z,24.12
2017-08-05T08:32:40.468Z,24.17
2017-08-05T08:33:41.098Z,24.17
2017-08-05T08:34:41.102Z,24.27
2017-08-05T08:35:40.787Z,24.14
2017-08-05T08:36:40.791Z,24.04
2017-08-05T08:37:40.817Z,24.07
2017-08-05T08:38:40.828Z,24.04
2017-08-05T08:39:41.134Z,24.12
2017-08-05T08:40:41.117Z,24.02
2017-08-05T08:41:41.123Z,24.07
2017-08-05T08:42:40.802Z,23.93
2017-08-05T08:43:40.810Z,23.89
2017-08-05T08:44:41.134Z,23.92
2017-08-05T08:45:41.138Z,24.02
2017-08-05T08:46:41.129Z,24.03
2017-08-05T08:47:41.126Z,24.09
2017-08-05T08:48:41.136Z,24.19
2017-08-05T08:49:40.845Z,24.19
2017-08-05T08:50:41.151Z,24.21
2017-08-05T08:51:41.141Z,24.21
2017-08-05T08:52:40.819Z,24.18
2017-08-05T08:53:41.146Z,24.02
2017-08-05T08:54:41.152Z,23.92
2017-08-05T08:55:40.829Z,23.75
2017-08-05T08:56:41.155Z,23.72
2017-08-05T08:57:41.177Z,23.78
2017-08-05T08:58:41.169Z,23.84
2017-08-05T08:59:41.158Z,23.89
2017-08-05T09:00:41.184Z,24.08
2017-08-05T09:01:40.890Z,24.22
2017-08-05T09:02:41.168Z,24.3
2017-08-05T09:03:41.197Z,24.24
2017-08-05T09:04:41.180Z,24.32
2017-08-05T09:05:41.191Z,24.29
2017-08-05T09:06:40.868Z,24.29
2017-08-05T09:07:41.177Z,24.42
2017-08-05T09:08:41.175Z,24.51
2017-08-05T09:09:41.179Z,24.56
2017-08-05T09:10:40.882Z,24.74
2017-08-05T09:11:41.197Z,24.69
2017-08-05T09:12:41.199Z,24.75
2017-08-05T09:13:41.205Z,24.89
2017-08-05T09:14:40.572Z,24.96
2017-08-05T09:15:40.870Z,25.01
2017-08-05T09:16:41.203Z,25.08
2017-08-05T09:17:41.414Z,25.27
2017-08-05T09:18:40.576Z,25.45
2017-08-05T09:19:40.884Z,25.45
2017-08-05T09:20:41.205Z,25.49
2017-08-05T09:21:41.222Z,25.3
2017-08-05T09:22:40.567Z,25.3
2017-08-05T09:23:40.900Z,25.14
2017-08-05T09:24:40.621Z,25.04
2017-08-05T09:25:41.235Z,25
2017-08-05T09:26:40.680Z,25
2017-08-05T09:27:42.279Z,25.12
2017-08-05T09:28:40.970Z,25.23
2017-08-05T09:29:41.251Z,25.39
2017-08-05T09:30:41.087Z,25.32
2017-08-05T09:31:41.244Z,25.54
2017-08-05T09:32:40.596Z,25.59
2017-08-05T09:33:40.918Z,25.84
2017-08-05T09:34:40.925Z,25.85
2017-08-05T09:35:40.973Z,25.94
2017-08-05T09:36:41.302Z,26.03
2017-08-05T09:37:40.950Z,25.94
2017-08-05T09:38:41.252Z,25.86
2017-08-05T09:39:40.945Z,25.67
2017-08-05T09:40:40.938Z,25.47
2017-08-05T09:41:40.941Z,25.34
2017-08-05T09:42:40.950Z,25.29
2017-08-05T09:43:40.984Z,25.22
2017-08-05T09:44:41.312Z,25.29
2017-08-05T09:45:40.991Z,25.26
2017-08-05T09:46:41.276Z,25.38
2017-08-05T09:47:41.287Z,25.39
2017-08-05T09:48:41.301Z,25.41
2017-08-05T09:49:41.293Z,25.34
2017-08-05T09:50:40.997Z,25.29
2017-08-05T09:51:41.331Z,25.2
2017-08-05T09:52:41.328Z,25.11
2017-08-05T09:53:40.991Z,25.11
2017-08-05T09:54:40.978Z,25.11
2017-08-05T09:55:41.015Z,25.09
2017-08-05T09:56:41.015Z,25.08
2017-08-05T09:57:40.987Z,25.15
2017-08-05T09:58:41.312Z,25.23
2017-08-05T09:59:41.318Z,25.14
2017-08-05T10:00:41.019Z,25.08
2017-08-05T10:01:41.325Z,25.05
2017-08-05T10:02:41.325Z,25.05
2017-08-05T10:03:41.009Z,25.09
2017-08-05T10:04:41.037Z,25.11
2017-08-05T10:05:41.335Z,25.11
2017-08-05T10:06:41.043Z,25.33
2017-08-05T10:07:41.341Z,25.47
2017-08-05T10:08:41.031Z,25.57
2017-08-05T10:09:40.705Z,25.66
2017-08-05T10:10:41.393Z,25.89
2017-08-05T10:11:41.350Z,25.99
2017-08-05T10:12:41.354Z,26.03
2017-08-05T10:13:41.048Z,25.93
2017-08-05T10:14:41.069Z,25.82
2017-08-05T10:15:41.058Z,25.59
2017-08-05T10:16:41.061Z,25.57
2017-08-05T10:17:41.057Z,25.71
2017-08-05T10:18:41.072Z,25.88
2017-08-05T10:19:41.379Z,25.91
2017-08-05T10:20:41.387Z,25.94
2017-08-05T10:21:41.387Z,25.93
2017-08-05T10:22:41.407Z,25.94
2017-08-05T10:23:41.401Z,25.97
2017-08-05T10:24:41.389Z,26.07
2017-08-05T10:25:41.403Z,26.09
2017-08-05T10:26:41.094Z,26.11
2017-08-05T10:27:41.401Z,26.26
2017-08-05T10:28:41.400Z,26.23
2017-08-05T10:29:41.408Z,26.19
2017-08-05T10:30:41.409Z,26.04
2017-08-05T10:31:41.091Z,26.07
2017-08-05T10:32:41.440Z,26.09
2017-08-05T10:33:41.419Z,26.17
2017-08-05T10:34:41.122Z,26.3
2017-08-05T10:35:41.107Z,26.34
2017-08-05T10:36:41.451Z,26.3
2017-08-05T10:37:41.431Z,26.32
2017-08-05T10:38:41.115Z,26.32
2017-08-05T10:39:41.452Z,26.24
2017-08-05T10:40:41.441Z,26.26
2017-08-05T10:41:41.133Z,26.26
2017-08-05T10:42:41.149Z,25.99
2017-08-05T10:43:41.451Z,25.91
2017-08-05T10:44:41.451Z,25.93
2017-08-05T10:45:41.458Z,25.89
2017-08-05T10:46:41.138Z,25.78
2017-08-05T10:47:41.465Z,25.74
2017-08-05T10:48:41.481Z,25.56
2017-08-05T10:49:41.164Z,25.51
2017-08-05T10:50:40.832Z,25.42
2017-08-05T10:51:41.479Z,25.32
2017-08-05T10:52:41.480Z,25.56
2017-08-05T10:53:41.499Z,25.66
2017-08-05T10:54:41.164Z,25.69
2017-08-05T10:55:41.488Z,25.71
2017-08-05T10:56:41.508Z,25.82
2017-08-05T10:57:41.197Z,25.6
2017-08-05T10:58:41.177Z,25.47
2017-08-05T10:59:41.507Z,25.26
2017-08-05T11:00:41.534Z,25.2
2017-08-05T11:01:41.505Z,25.02
2017-08-05T11:02:40.874Z,24.78
2017-08-05T11:03:41.192Z,24.85
2017-08-05T11:04:41.519Z,24.87
2017-08-05T11:05:40.880Z,24.92
2017-08-05T11:06:41.530Z,25.11
2017-08-05T11:07:41.522Z,25.14
2017-08-05T11:08:41.224Z,25.24
2017-08-05T11:09:41.548Z,25.32
2017-08-05T11:10:41.528Z,25.38
2017-08-05T11:11:41.222Z,25.41
2017-08-05T11:12:41.567Z,25.27
2017-08-05T11:13:41.543Z,25.39
2017-08-05T11:14:41.542Z,25.34
2017-08-05T11:15:41.231Z,25.41
2017-08-05T11:16:41.229Z,25.33
2017-08-05T11:17:41.550Z,25.45
2017-08-05T11:18:41.248Z,25.57
2017-08-05T11:19:41.555Z,25.49
2017-08-05T11:20:41.245Z,25.52
2017-08-05T11:21:41.574Z,25.39
2017-08-05T11:22:41.238Z,25.37
2017-08-05T11:23:41.244Z,25.33
2017-08-05T11:24:41.245Z,25.37
2017-08-05T11:25:41.571Z,25.49
2017-08-05T11:26:40.946Z,25.52
2017-08-05T11:27:41.293Z,25.56
2017-08-05T11:28:41.586Z,25.56
2017-08-05T11:29:41.582Z,25.63
2017-08-05T11:30:41.262Z,25.64
2017-08-05T11:31:41.265Z,25.63
2017-08-05T11:32:41.268Z,25.71
2017-08-05T11:33:41.268Z,25.64
2017-08-05T11:34:41.297Z,25.71
2017-08-05T11:35:41.847Z,25.7
2017-08-05T11:36:41.423Z,25.74
2017-08-05T11:37:41.601Z,25.81
2017-08-05T11:38:41.623Z,25.67
2017-08-05T11:39:41.285Z,25.54
2017-08-05T11:40:40.975Z,25.57
2017-08-05T11:41:41.314Z,25.33
2017-08-05T11:42:41.615Z,25.32
2017-08-05T11:43:41.319Z,25.12
2017-08-05T11:44:41.299Z,24.96
2017-08-05T11:45:41.998Z,24.87
2017-08-05T11:46:41.623Z,24.96
2017-08-05T11:47:41.306Z,24.96
2017-08-05T11:48:41.628Z,24.93
2017-08-05T11:49:41.644Z,24.97
2017-08-05T11:50:41.646Z,25.04
2017-08-05T11:51:41.029Z,25.02
2017-08-05T11:52:41.650Z,25.02
2017-08-05T11:53:41.320Z,25.08
2017-08-05T11:54:41.344Z,25.05
2017-08-05T11:55:41.648Z,24.97
2017-08-05T11:56:41.338Z,25.05
2017-08-05T11:57:41.331Z,25.15
2017-08-05T11:58:41.660Z,25.22
2017-08-05T11:59:41.660Z,25.32
2017-08-05T12:00:41.665Z,25.44
2017-08-05T12:01:41.339Z,25.71
2017-08-05T12:02:41.658Z,25.81
2017-08-05T12:03:41.035Z,25.86
2017-08-05T12:04:41.346Z,26.2
2017-08-05T12:05:41.365Z,26.34
2017-08-05T12:06:41.357Z,26.42
2017-08-05T12:07:41.358Z,26.63
2017-08-05T12:08:41.035Z,26.69
2017-08-05T12:09:41.361Z,26.75
2017-08-05T12:10:41.364Z,26.84
2017-08-05T12:11:41.731Z,26.93
2017-08-05T12:12:41.707Z,27.05
2017-08-05T12:13:41.725Z,27.11
2017-08-05T12:14:41.373Z,27
2017-08-05T12:15:41.698Z,26.96
2017-08-05T12:16:41.386Z,27.04
2017-08-05T12:17:41.067Z,27.04
2017-08-05T12:18:41.072Z,27.09
2017-08-05T12:19:41.710Z,27.33
2017-08-05T12:20:41.717Z,27.24
2017-08-05T12:21:41.399Z,27.41
2017-08-05T12:22:41.406Z,27.37
2017-08-05T12:23:41.408Z,27.33
2017-08-05T12:24:41.738Z,27.28
2017-08-05T12:25:41.427Z,27.12
2017-08-05T12:26:41.739Z,27.04
2017-08-05T12:27:41.424Z,26.93
2017-08-05T12:28:41.766Z,26.89
2017-08-05T12:29:41.113Z,26.86
2017-08-05T12:30:41.756Z,26.9
2017-08-05T12:31:41.448Z,26.82
2017-08-05T12:32:41.447Z,26.78
2017-08-05T12:33:41.443Z,26.61
2017-08-05T12:34:41.453Z,26.5
2017-08-05T12:35:41.468Z,26.44
2017-08-05T12:36:41.815Z,26.31
2017-08-05T12:37:41.461Z,26.26
2017-08-05T12:38:41.786Z,26.2
2017-08-05T12:39:41.488Z,26.17
2017-08-05T12:40:41.817Z,26.26
2017-08-05T12:41:41.485Z,26.2
2017-08-05T12:42:41.818Z,26.07
2017-08-05T12:43:41.484Z,26.09
2017-08-05T12:44:41.519Z,26
2017-08-05T12:45:41.811Z,25.88
2017-08-05T12:46:41.492Z,25.85
2017-08-05T12:47:41.838Z,25.86
2017-08-05T12:48:41.867Z,25.93
2017-08-05T12:49:41.846Z,25.97
2017-08-05T12:50:41.512Z,26.06
2017-08-05T12:51:41.834Z,26.16
2017-08-05T12:52:41.202Z,26.32
2017-08-05T12:53:41.848Z,26.22
2017-08-05T12:54:41.529Z,26.32
2017-08-05T12:55:41.534Z,26.34